sensor_id;sensor_type;location;lat;lon;timestamp;P1;durP1;ratioP1;P2;durP2;ratioP2
10851;SDS011;5479;52.046;6.314;2022-09-09T00:01:58;8.30;;;4.87;;
10851;SDS011;5479;52.046;6.314;2022-09-09T00:04:31;8.63;;;4.90;;
10851;SDS011;5479;52.046;6.314;2022-09-09T00:07:04;8.87;;;5.00;;
10851;SDS011;5479;52.046;6.314;2022-09-09T00:09:39;8.33;;;5.10;;
10851;SDS011;5479;52.046;6.314;2022-09-09T00:12:14;7.83;;;5.20;;
10851;SDS011;5479;52.046;6.314;2022-09-09T00:15:05;7.60;;;5.30;;
10851;SDS011;5479;52.046;6.314;2022-09-09T00:17:41;8.23;;;5.43;;
10851;SDS011;5479;52.046;6.314;2022-09-09T00:20:16;7.40;;;5.33;;
10851;SDS011;5479;52.046;6.314;2022-09-09T00:22:55;7.37;;;5.17;;
10851;SDS011;5479;52.046;6.314;2022-09-09T00:25:34;8.03;;;5.70;;
10851;SDS011;5479;52.046;6.314;2022-09-09T00:28:13;9.63;;;6.17;;
10851;SDS011;5479;52.046;6.314;2022-09-09T00:30:46;8.70;;;5.80;;
10851;SDS011;5479;52.046;6.314;2022-09-09T00:33:15;7.60;;;5.87;;
10851;SDS011;5479;52.046;6.314;2022-09-09T00:35:46;11.20;;;6.80;;
10851;SDS011;5479;52.046;6.314;2022-09-09T00:38:19;10.23;;;6.27;;
10851;SDS011;5479;52.046;6.314;2022-09-09T00:40:53;8.67;;;6.13;;
10851;SDS011;5479;52.046;6.314;2022-09-09T00:43:29;9.63;;;6.33;;
10851;SDS011;5479;52.046;6.314;2022-09-09T00:48:59;9.00;;;6.90;;
10851;SDS011;5479;52.046;6.314;2022-09-09T00:51:36;9.17;;;6.97;;
10851;SDS011;5479;52.046;6.314;2022-09-09T00:54:18;9.27;;;6.83;;
10851;SDS011;5479;52.046;6.314;2022-09-09T00:57:11;9.70;;;6.83;;
10851;SDS011;5479;52.046;6.314;2022-09-09T00:59:48;9.53;;;6.30;;
10851;SDS011;5479;52.046;6.314;2022-09-09T01:02:26;8.70;;;6.27;;
10851;SDS011;5479;52.046;6.314;2022-09-09T01:04:59;8.00;;;6.97;;
10851;SDS011;5479;52.046;6.314;2022-09-09T01:07:34;9.50;;;7.53;;
10851;SDS011;5479;52.046;6.314;2022-09-09T01:10:11;10.23;;;8.37;;
10851;SDS011;5479;52.046;6.314;2022-09-09T01:12:48;10.30;;;8.50;;
10851;SDS011;5479;52.046;6.314;2022-09-09T01:15:20;11.37;;;8.87;;
10851;SDS011;5479;52.046;6.314;2022-09-09T01:17:53;10.73;;;8.07;;
10851;SDS011;5479;52.046;6.314;2022-09-09T01:20:30;10.37;;;8.50;;
10851;SDS011;5479;52.046;6.314;2022-09-09T01:23:19;10.83;;;7.83;;
10851;SDS011;5479;52.046;6.314;2022-09-09T01:26:09;9.67;;;7.57;;
10851;SDS011;5479;52.046;6.314;2022-09-09T01:28:45;8.30;;;6.70;;
10851;SDS011;5479;52.046;6.314;2022-09-09T01:31:16;9.17;;;6.80;;
10851;SDS011;5479;52.046;6.314;2022-09-09T01:33:47;9.00;;;6.70;;
10851;SDS011;5479;52.046;6.314;2022-09-09T01:36:18;9.20;;;6.43;;
10851;SDS011;5479;52.046;6.314;2022-09-09T01:38:52;8.30;;;6.80;;
10851;SDS011;5479;52.046;6.314;2022-09-09T01:41:22;8.63;;;5.97;;
10851;SDS011;5479;52.046;6.314;2022-09-09T01:43:52;7.93;;;5.90;;
10851;SDS011;5479;52.046;6.314;2022-09-09T01:46:23;7.60;;;6.13;;
10851;SDS011;5479;52.046;6.314;2022-09-09T01:48:52;9.33;;;6.60;;
10851;SDS011;5479;52.046;6.314;2022-09-09T01:51:23;8.50;;;6.17;;
10851;SDS011;5479;52.046;6.314;2022-09-09T01:53:51;8.20;;;6.43;;
10851;SDS011;5479;52.046;6.314;2022-09-09T01:56:24;8.27;;;5.37;;
10851;SDS011;5479;52.046;6.314;2022-09-09T01:59:03;7.70;;;5.90;;
10851;SDS011;5479;52.046;6.314;2022-09-09T02:01:41;8.13;;;6.17;;
10851;SDS011;5479;52.046;6.314;2022-09-09T02:04:25;7.30;;;5.83;;
10851;SDS011;5479;52.046;6.314;2022-09-09T02:07:06;8.67;;;6.63;;
10851;SDS011;5479;52.046;6.314;2022-09-09T02:09:47;9.43;;;6.70;;
10851;SDS011;5479;52.046;6.314;2022-09-09T02:12:20;9.13;;;7.43;;
10851;SDS011;5479;52.046;6.314;2022-09-09T02:14:55;9.93;;;7.77;;
10851;SDS011;5479;52.046;6.314;2022-09-09T02:17:26;11.17;;;7.87;;
10851;SDS011;5479;52.046;6.314;2022-09-09T02:20:03;10.90;;;8.70;;
10851;SDS011;5479;52.046;6.314;2022-09-09T02:22:35;10.67;;;7.67;;
10851;SDS011;5479;52.046;6.314;2022-09-09T02:25:06;10.23;;;7.90;;
10851;SDS011;5479;52.046;6.314;2022-09-09T02:27:39;11.20;;;8.10;;
10851;SDS011;5479;52.046;6.314;2022-09-09T02:30:09;10.93;;;8.07;;
10851;SDS011;5479;52.046;6.314;2022-09-09T02:32:38;10.37;;;7.80;;
10851;SDS011;5479;52.046;6.314;2022-09-09T02:35:10;10.27;;;7.90;;
10851;SDS011;5479;52.046;6.314;2022-09-09T02:37:42;9.50;;;7.90;;
10851;SDS011;5479;52.046;6.314;2022-09-09T02:40:12;9.57;;;7.37;;
10851;SDS011;5479;52.046;6.314;2022-09-09T02:42:46;10.57;;;7.63;;
10851;SDS011;5479;52.046;6.314;2022-09-09T02:45:16;10.63;;;6.67;;
10851;SDS011;5479;52.046;6.314;2022-09-09T02:47:48;9.70;;;7.10;;
10851;SDS011;5479;52.046;6.314;2022-09-09T02:50:24;11.40;;;7.03;;
10851;SDS011;5479;52.046;6.314;2022-09-09T02:53:00;9.67;;;6.53;;
10851;SDS011;5479;52.046;6.314;2022-09-09T02:55:39;8.13;;;6.83;;
10851;SDS011;5479;52.046;6.314;2022-09-09T02:58:12;9.13;;;7.47;;
10851;SDS011;5479;52.046;6.314;2022-09-09T03:00:44;9.10;;;7.10;;
10851;SDS011;5479;52.046;6.314;2022-09-09T03:03:15;8.60;;;6.83;;
10851;SDS011;5479;52.046;6.314;2022-09-09T03:05:44;7.50;;;6.70;;
10851;SDS011;5479;52.046;6.314;2022-09-09T03:08:12;11.87;;;6.97;;
10851;SDS011;5479;52.046;6.314;2022-09-09T03:10:40;9.03;;;7.53;;
10851;SDS011;5479;52.046;6.314;2022-09-09T03:13:09;8.43;;;6.73;;
10851;SDS011;5479;52.046;6.314;2022-09-09T03:15:38;9.70;;;7.90;;
10851;SDS011;5479;52.046;6.314;2022-09-09T03:18:06;9.47;;;7.80;;
10851;SDS011;5479;52.046;6.314;2022-09-09T03:20:34;10.63;;;8.60;;
10851;SDS011;5479;52.046;6.314;2022-09-09T03:23:02;11.13;;;8.60;;
10851;SDS011;5479;52.046;6.314;2022-09-09T03:25:30;10.43;;;8.40;;
10851;SDS011;5479;52.046;6.314;2022-09-09T03:28:00;9.23;;;8.33;;
10851;SDS011;5479;52.046;6.314;2022-09-09T03:30:28;11.53;;;8.67;;
10851;SDS011;5479;52.046;6.314;2022-09-09T03:32:57;10.60;;;9.13;;
10851;SDS011;5479;52.046;6.314;2022-09-09T03:35:25;10.10;;;7.97;;
10851;SDS011;5479;52.046;6.314;2022-09-09T03:37:53;10.33;;;8.20;;
10851;SDS011;5479;52.046;6.314;2022-09-09T03:40:24;11.23;;;9.10;;
10851;SDS011;5479;52.046;6.314;2022-09-09T03:42:52;10.93;;;8.43;;
10851;SDS011;5479;52.046;6.314;2022-09-09T03:45:20;10.73;;;7.83;;
10851;SDS011;5479;52.046;6.314;2022-09-09T03:47:49;10.33;;;8.00;;
10851;SDS011;5479;52.046;6.314;2022-09-09T03:50:18;11.10;;;8.00;;
10851;SDS011;5479;52.046;6.314;2022-09-09T03:52:46;11.67;;;7.70;;
10851;SDS011;5479;52.046;6.314;2022-09-09T03:55:14;11.50;;;8.03;;
10851;SDS011;5479;52.046;6.314;2022-09-09T03:57:43;11.20;;;7.87;;
10851;SDS011;5479;52.046;6.314;2022-09-09T04:00:12;10.27;;;7.57;;
10851;SDS011;5479;52.046;6.314;2022-09-09T04:02:42;8.67;;;7.53;;
10851;SDS011;5479;52.046;6.314;2022-09-09T04:05:10;11.70;;;7.67;;
10851;SDS011;5479;52.046;6.314;2022-09-09T04:07:40;9.53;;;7.47;;
10851;SDS011;5479;52.046;6.314;2022-09-09T04:10:08;10.00;;;7.90;;
10851;SDS011;5479;52.046;6.314;2022-09-09T04:12:36;9.33;;;7.80;;
10851;SDS011;5479;52.046;6.314;2022-09-09T04:15:05;12.67;;;8.33;;
10851;SDS011;5479;52.046;6.314;2022-09-09T04:17:33;10.40;;;8.10;;
10851;SDS011;5479;52.046;6.314;2022-09-09T04:20:02;10.60;;;7.83;;
10851;SDS011;5479;52.046;6.314;2022-09-09T04:22:31;11.27;;;8.33;;
10851;SDS011;5479;52.046;6.314;2022-09-09T04:25:01;10.73;;;8.10;;
10851;SDS011;5479;52.046;6.314;2022-09-09T04:27:31;12.27;;;8.10;;
10851;SDS011;5479;52.046;6.314;2022-09-09T04:29:59;11.23;;;7.70;;
10851;SDS011;5479;52.046;6.314;2022-09-09T04:32:27;11.77;;;8.50;;
10851;SDS011;5479;52.046;6.314;2022-09-09T04:34:55;10.73;;;7.87;;
10851;SDS011;5479;52.046;6.314;2022-09-09T04:37:24;14.43;;;8.33;;
10851;SDS011;5479;52.046;6.314;2022-09-09T04:39:53;10.23;;;7.90;;
10851;SDS011;5479;52.046;6.314;2022-09-09T04:42:23;10.40;;;8.33;;
10851;SDS011;5479;52.046;6.314;2022-09-09T04:44:54;10.30;;;7.93;;
10851;SDS011;5479;52.046;6.314;2022-09-09T04:47:22;10.93;;;7.97;;
10851;SDS011;5479;52.046;6.314;2022-09-09T04:49:50;11.33;;;8.37;;
10851;SDS011;5479;52.046;6.314;2022-09-09T04:52:17;12.60;;;8.70;;
10851;SDS011;5479;52.046;6.314;2022-09-09T04:54:45;9.93;;;8.17;;
10851;SDS011;5479;52.046;6.314;2022-09-09T04:57:14;10.37;;;8.17;;
10851;SDS011;5479;52.046;6.314;2022-09-09T04:59:43;10.87;;;8.33;;
10851;SDS011;5479;52.046;6.314;2022-09-09T05:02:12;12.63;;;8.30;;
10851;SDS011;5479;52.046;6.314;2022-09-09T05:04:40;10.10;;;8.03;;
10851;SDS011;5479;52.046;6.314;2022-09-09T05:07:08;11.57;;;7.90;;
10851;SDS011;5479;52.046;6.314;2022-09-09T05:09:36;9.83;;;7.63;;
10851;SDS011;5479;52.046;6.314;2022-09-09T05:12:04;10.73;;;7.90;;
10851;SDS011;5479;52.046;6.314;2022-09-09T05:14:32;11.03;;;7.27;;
10851;SDS011;5479;52.046;6.314;2022-09-09T05:17:04;11.27;;;7.67;;
10851;SDS011;5479;52.046;6.314;2022-09-09T05:19:33;9.70;;;6.97;;
10851;SDS011;5479;52.046;6.314;2022-09-09T05:22:01;13.40;;;7.40;;
10851;SDS011;5479;52.046;6.314;2022-09-09T05:24:30;10.30;;;6.77;;
10851;SDS011;5479;52.046;6.314;2022-09-09T05:26:59;10.17;;;7.27;;
10851;SDS011;5479;52.046;6.314;2022-09-09T05:29:28;11.87;;;7.57;;
10851;SDS011;5479;52.046;6.314;2022-09-09T05:31:59;11.70;;;7.20;;
10851;SDS011;5479;52.046;6.314;2022-09-09T05:34:29;10.23;;;6.87;;
10851;SDS011;5479;52.046;6.314;2022-09-09T05:36:57;8.87;;;6.30;;
10851;SDS011;5479;52.046;6.314;2022-09-09T05:39:25;10.37;;;6.77;;
10851;SDS011;5479;52.046;6.314;2022-09-09T05:41:53;8.67;;;6.23;;
10851;SDS011;5479;52.046;6.314;2022-09-09T05:44:22;11.17;;;6.40;;
10851;SDS011;5479;52.046;6.314;2022-09-09T05:46:53;10.20;;;7.00;;
10851;SDS011;5479;52.046;6.314;2022-09-09T05:49:22;9.37;;;6.43;;
10851;SDS011;5479;52.046;6.314;2022-09-09T05:51:51;10.80;;;6.37;;
10851;SDS011;5479;52.046;6.314;2022-09-09T05:54:21;11.17;;;6.93;;
10851;SDS011;5479;52.046;6.314;2022-09-09T05:56:50;9.10;;;6.63;;
10851;SDS011;5479;52.046;6.314;2022-09-09T05:59:19;10.63;;;6.60;;
10851;SDS011;5479;52.046;6.314;2022-09-09T06:01:49;11.90;;;6.83;;
10851;SDS011;5479;52.046;6.314;2022-09-09T06:04:17;10.73;;;7.57;;
10851;SDS011;5479;52.046;6.314;2022-09-09T06:06:48;10.97;;;6.90;;
10851;SDS011;5479;52.046;6.314;2022-09-09T06:09:18;11.33;;;6.77;;
10851;SDS011;5479;52.046;6.314;2022-09-09T06:11:45;14.10;;;6.60;;
10851;SDS011;5479;52.046;6.314;2022-09-09T06:14:13;8.77;;;6.27;;
10851;SDS011;5479;52.046;6.314;2022-09-09T06:16:44;11.47;;;6.80;;
10851;SDS011;5479;52.046;6.314;2022-09-09T06:19:12;11.27;;;6.63;;
10851;SDS011;5479;52.046;6.314;2022-09-09T06:21:40;13.00;;;7.03;;
10851;SDS011;5479;52.046;6.314;2022-09-09T06:24:08;10.43;;;6.50;;
10851;SDS011;5479;52.046;6.314;2022-09-09T06:26:41;9.57;;;6.63;;
10851;SDS011;5479;52.046;6.314;2022-09-09T06:29:09;9.83;;;6.30;;
10851;SDS011;5479;52.046;6.314;2022-09-09T06:31:37;13.53;;;7.03;;
10851;SDS011;5479;52.046;6.314;2022-09-09T06:34:07;12.83;;;6.80;;
10851;SDS011;5479;52.046;6.314;2022-09-09T06:36:36;16.00;;;6.23;;
10851;SDS011;5479;52.046;6.314;2022-09-09T06:39:06;9.13;;;5.93;;
10851;SDS011;5479;52.046;6.314;2022-09-09T06:41:37;12.10;;;5.90;;
10851;SDS011;5479;52.046;6.314;2022-09-09T06:44:07;12.33;;;6.10;;
10851;SDS011;5479;52.046;6.314;2022-09-09T06:46:38;11.60;;;6.10;;
10851;SDS011;5479;52.046;6.314;2022-09-09T06:49:07;10.03;;;4.53;;
10851;SDS011;5479;52.046;6.314;2022-09-09T06:51:35;8.07;;;4.37;;
10851;SDS011;5479;52.046;6.314;2022-09-09T06:54:09;7.00;;;4.00;;
10851;SDS011;5479;52.046;6.314;2022-09-09T06:56:39;7.73;;;3.90;;
10851;SDS011;5479;52.046;6.314;2022-09-09T06:59:11;9.73;;;4.30;;
10851;SDS011;5479;52.046;6.314;2022-09-09T07:01:40;8.77;;;3.43;;
10851;SDS011;5479;52.046;6.314;2022-09-09T07:04:09;9.57;;;3.67;;
10851;SDS011;5479;52.046;6.314;2022-09-09T07:06:40;6.27;;;3.10;;
10851;SDS011;5479;52.046;6.314;2022-09-09T07:09:10;6.95;;;3.25;;
10851;SDS011;5479;52.046;6.314;2022-09-09T07:11:41;8.43;;;3.23;;
10851;SDS011;5479;52.046;6.314;2022-09-09T07:14:12;5.93;;;3.30;;
10851;SDS011;5479;52.046;6.314;2022-09-09T07:16:44;7.97;;;3.53;;
10851;SDS011;5479;52.046;6.314;2022-09-09T07:19:12;7.40;;;3.40;;
10851;SDS011;5479;52.046;6.314;2022-09-09T07:21:41;7.90;;;3.53;;
10851;SDS011;5479;52.046;6.314;2022-09-09T07:24:09;9.17;;;3.67;;
10851;SDS011;5479;52.046;6.314;2022-09-09T07:26:38;8.80;;;3.57;;
10851;SDS011;5479;52.046;6.314;2022-09-09T07:29:11;8.03;;;3.50;;
10851;SDS011;5479;52.046;6.314;2022-09-09T07:31:40;9.23;;;4.17;;
10851;SDS011;5479;52.046;6.314;2022-09-09T07:34:08;9.73;;;3.80;;
10851;SDS011;5479;52.046;6.314;2022-09-09T07:36:37;6.80;;;3.50;;
10851;SDS011;5479;52.046;6.314;2022-09-09T07:39:09;9.13;;;4.27;;
10851;SDS011;5479;52.046;6.314;2022-09-09T07:41:43;9.17;;;3.93;;
10851;SDS011;5479;52.046;6.314;2022-09-09T07:44:16;9.57;;;3.90;;
10851;SDS011;5479;52.046;6.314;2022-09-09T07:46:50;9.77;;;3.97;;
10851;SDS011;5479;52.046;6.314;2022-09-09T07:49:20;11.13;;;4.40;;
10851;SDS011;5479;52.046;6.314;2022-09-09T07:51:48;7.77;;;3.47;;
10851;SDS011;5479;52.046;6.314;2022-09-09T07:54:17;10.63;;;4.03;;
10851;SDS011;5479;52.046;6.314;2022-09-09T07:56:49;10.70;;;3.87;;
10851;SDS011;5479;52.046;6.314;2022-09-09T07:59:21;9.83;;;3.60;;
10851;SDS011;5479;52.046;6.314;2022-09-09T08:01:51;11.13;;;3.87;;
10851;SDS011;5479;52.046;6.314;2022-09-09T08:04:20;7.83;;;3.60;;
10851;SDS011;5479;52.046;6.314;2022-09-09T08:06:51;11.40;;;4.30;;
10851;SDS011;5479;52.046;6.314;2022-09-09T08:09:22;9.47;;;3.43;;
10851;SDS011;5479;52.046;6.314;2022-09-09T08:11:51;12.10;;;4.00;;
10851;SDS011;5479;52.046;6.314;2022-09-09T08:14:21;11.23;;;3.93;;
10851;SDS011;5479;52.046;6.314;2022-09-09T08:16:50;9.80;;;3.57;;
10851;SDS011;5479;52.046;6.314;2022-09-09T08:19:20;8.90;;;3.30;;
10851;SDS011;5479;52.046;6.314;2022-09-09T08:21:47;9.20;;;3.27;;
10851;SDS011;5479;52.046;6.314;2022-09-09T08:24:16;8.20;;;3.80;;
10851;SDS011;5479;52.046;6.314;2022-09-09T08:26:46;9.10;;;4.00;;
10851;SDS011;5479;52.046;6.314;2022-09-09T08:29:15;12.17;;;3.50;;
10851;SDS011;5479;52.046;6.314;2022-09-09T08:31:46;9.03;;;3.30;;
10851;SDS011;5479;52.046;6.314;2022-09-09T08:34:15;10.40;;;3.37;;
10851;SDS011;5479;52.046;6.314;2022-09-09T08:36:47;8.87;;;3.27;;
10851;SDS011;5479;52.046;6.314;2022-09-09T08:39:16;8.90;;;3.00;;
10851;SDS011;5479;52.046;6.314;2022-09-09T08:45:04;8.50;;;2.92;;
10851;SDS011;5479;52.046;6.314;2022-09-09T08:47:45;8.35;;;2.67;;
10851;SDS011;5479;52.046;6.314;2022-09-09T08:50:23;8.20;;;2.83;;
10851;SDS011;5479;52.046;6.314;2022-09-09T08:52:57;6.28;;;2.80;;
10851;SDS011;5479;52.046;6.314;2022-09-09T08:55:32;7.53;;;2.88;;
10851;SDS011;5479;52.046;6.314;2022-09-09T08:58:09;7.05;;;3.00;;
10851;SDS011;5479;52.046;6.314;2022-09-09T09:00:43;7.82;;;3.25;;
10851;SDS011;5479;52.046;6.314;2022-09-09T09:03:25;10.43;;;3.13;;
10851;SDS011;5479;52.046;6.314;2022-09-09T09:06:06;8.07;;;3.05;;
10851;SDS011;5479;52.046;6.314;2022-09-09T09:08:48;7.68;;;2.60;;
10851;SDS011;5479;52.046;6.314;2022-09-09T09:11:22;5.47;;;2.53;;
10851;SDS011;5479;52.046;6.314;2022-09-09T09:13:52;8.70;;;2.90;;
10851;SDS011;5479;52.046;6.314;2022-09-09T09:16:27;8.57;;;3.50;;
10851;SDS011;5479;52.046;6.314;2022-09-09T09:19:01;6.65;;;2.67;;
10851;SDS011;5479;52.046;6.314;2022-09-09T09:21:31;5.22;;;2.67;;
10851;SDS011;5479;52.046;6.314;2022-09-09T09:24:07;9.75;;;2.38;;
10851;SDS011;5479;52.046;6.314;2022-09-09T09:26:45;7.22;;;2.70;;
10851;SDS011;5479;52.046;6.314;2022-09-09T09:29:14;7.10;;;2.70;;
10851;SDS011;5479;52.046;6.314;2022-09-09T09:31:45;6.53;;;2.65;;
10851;SDS011;5479;52.046;6.314;2022-09-09T09:34:19;9.70;;;2.83;;
10851;SDS011;5479;52.046;6.314;2022-09-09T09:36:52;7.97;;;2.63;;
10851;SDS011;5479;52.046;6.314;2022-09-09T09:39:24;7.85;;;3.00;;
10851;SDS011;5479;52.046;6.314;2022-09-09T09:41:53;5.53;;;2.45;;
10851;SDS011;5479;52.046;6.314;2022-09-09T09:44:24;6.50;;;2.40;;
10851;SDS011;5479;52.046;6.314;2022-09-09T09:47:04;7.38;;;2.40;;
10851;SDS011;5479;52.046;6.314;2022-09-09T09:49:35;7.18;;;2.60;;
10851;SDS011;5479;52.046;6.314;2022-09-09T09:52:03;6.50;;;2.58;;
10851;SDS011;5479;52.046;6.314;2022-09-09T09:54:32;9.43;;;3.00;;
10851;SDS011;5479;52.046;6.314;2022-09-09T09:57:08;5.95;;;2.55;;
10851;SDS011;5479;52.046;6.314;2022-09-09T09:59:38;8.10;;;2.47;;
10851;SDS011;5479;52.046;6.314;2022-09-09T10:02:13;8.38;;;2.83;;
10851;SDS011;5479;52.046;6.314;2022-09-09T10:04:44;6.50;;;2.42;;
10851;SDS011;5479;52.046;6.314;2022-09-09T10:07:13;7.45;;;2.40;;
10851;SDS011;5479;52.046;6.314;2022-09-09T10:09:46;7.75;;;2.60;;
10851;SDS011;5479;52.046;6.314;2022-09-09T10:12:24;5.85;;;2.00;;
10851;SDS011;5479;52.046;6.314;2022-09-09T10:15:01;6.95;;;2.25;;
10851;SDS011;5479;52.046;6.314;2022-09-09T10:17:36;6.63;;;2.22;;
10851;SDS011;5479;52.046;6.314;2022-09-09T10:20:19;4.82;;;1.70;;
10851;SDS011;5479;52.046;6.314;2022-09-09T10:23:02;7.50;;;2.13;;
10851;SDS011;5479;52.046;6.314;2022-09-09T10:25:44;7.93;;;2.05;;
10851;SDS011;5479;52.046;6.314;2022-09-09T10:28:31;10.27;;;2.72;;
10851;SDS011;5479;52.046;6.314;2022-09-09T10:31:12;6.57;;;2.17;;
10851;SDS011;5479;52.046;6.314;2022-09-09T10:33:51;7.53;;;2.22;;
10851;SDS011;5479;52.046;6.314;2022-09-09T10:36:32;8.43;;;2.72;;
10851;SDS011;5479;52.046;6.314;2022-09-09T10:39:03;7.22;;;2.10;;
10851;SDS011;5479;52.046;6.314;2022-09-09T10:41:36;5.80;;;2.15;;
10851;SDS011;5479;52.046;6.314;2022-09-09T10:44:15;7.22;;;2.67;;
10851;SDS011;5479;52.046;6.314;2022-09-09T10:46:53;5.05;;;2.03;;
10851;SDS011;5479;52.046;6.314;2022-09-09T10:52:36;8.10;;;2.50;;
10851;SDS011;5479;52.046;6.314;2022-09-09T10:55:09;7.15;;;2.00;;
10851;SDS011;5479;52.046;6.314;2022-09-09T10:57:40;8.48;;;2.50;;
10851;SDS011;5479;52.046;6.314;2022-09-09T11:00:14;9.07;;;2.42;;
10851;SDS011;5479;52.046;6.314;2022-09-09T11:02:45;5.38;;;1.65;;
10851;SDS011;5479;52.046;6.314;2022-09-09T11:05:19;5.97;;;1.98;;
10851;SDS011;5479;52.046;6.314;2022-09-09T11:07:51;6.63;;;2.20;;
10851;SDS011;5479;52.046;6.314;2022-09-09T11:10:34;7.50;;;1.85;;
10851;SDS011;5479;52.046;6.314;2022-09-09T11:13:09;6.60;;;2.00;;
10851;SDS011;5479;52.046;6.314;2022-09-09T11:15:43;5.35;;;2.03;;
10851;SDS011;5479;52.046;6.314;2022-09-09T11:18:17;6.03;;;2.00;;
10851;SDS011;5479;52.046;6.314;2022-09-09T11:20:51;6.18;;;2.22;;
10851;SDS011;5479;52.046;6.314;2022-09-09T11:23:24;8.05;;;2.40;;
10851;SDS011;5479;52.046;6.314;2022-09-09T11:25:55;7.93;;;2.55;;
10851;SDS011;5479;52.046;6.314;2022-09-09T11:28:28;9.02;;;2.50;;
10851;SDS011;5479;52.046;6.314;2022-09-09T11:31:15;7.22;;;2.10;;
10851;SDS011;5479;52.046;6.314;2022-09-09T11:33:57;7.28;;;2.42;;
10851;SDS011;5479;52.046;6.314;2022-09-09T11:36:48;9.68;;;2.17;;
10851;SDS011;5479;52.046;6.314;2022-09-09T11:39:56;6.15;;;2.10;;
10851;SDS011;5479;52.046;6.314;2022-09-09T11:42:44;6.10;;;2.17;;
10851;SDS011;5479;52.046;6.314;2022-09-09T11:45:20;5.70;;;2.30;;
10851;SDS011;5479;52.046;6.314;2022-09-09T11:47:52;5.60;;;1.70;;
10851;SDS011;5479;52.046;6.314;2022-09-09T11:50:31;7.40;;;1.90;;
10851;SDS011;5479;52.046;6.314;2022-09-09T11:53:04;7.20;;;2.00;;
10851;SDS011;5479;52.046;6.314;2022-09-09T11:56:10;6.78;;;2.28;;
10851;SDS011;5479;52.046;6.314;2022-09-09T11:58:41;6.43;;;1.92;;
10851;SDS011;5479;52.046;6.314;2022-09-09T12:01:15;7.03;;;2.33;;
10851;SDS011;5479;52.046;6.314;2022-09-09T12:03:55;3.88;;;1.80;;
10851;SDS011;5479;52.046;6.314;2022-09-09T12:06:43;6.75;;;2.10;;
10851;SDS011;5479;52.046;6.314;2022-09-09T12:09:17;7.00;;;2.50;;
10851;SDS011;5479;52.046;6.314;2022-09-09T12:11:52;7.40;;;2.42;;
10851;SDS011;5479;52.046;6.314;2022-09-09T12:14:36;9.37;;;2.60;;
10851;SDS011;5479;52.046;6.314;2022-09-09T12:17:09;9.18;;;2.90;;
10851;SDS011;5479;52.046;6.314;2022-09-09T12:19:46;6.43;;;2.57;;
10851;SDS011;5479;52.046;6.314;2022-09-09T12:22:17;6.93;;;3.23;;
10851;SDS011;5479;52.046;6.314;2022-09-09T12:24:55;9.30;;;3.00;;
10851;SDS011;5479;52.046;6.314;2022-09-09T12:27:33;6.43;;;2.77;;
10851;SDS011;5479;52.046;6.314;2022-09-09T12:30:08;6.03;;;2.63;;
10851;SDS011;5479;52.046;6.314;2022-09-09T12:32:41;5.80;;;2.67;;
10851;SDS011;5479;52.046;6.314;2022-09-09T12:35:16;5.80;;;2.20;;
10851;SDS011;5479;52.046;6.314;2022-09-09T12:37:53;8.17;;;2.50;;
10851;SDS011;5479;52.046;6.314;2022-09-09T12:40:25;7.47;;;2.97;;
10851;SDS011;5479;52.046;6.314;2022-09-09T12:42:55;7.70;;;2.77;;
10851;SDS011;5479;52.046;6.314;2022-09-09T12:45:25;5.47;;;2.58;;
10851;SDS011;5479;52.046;6.314;2022-09-09T12:47:56;4.80;;;2.50;;
10851;SDS011;5479;52.046;6.314;2022-09-09T12:50:27;5.73;;;2.77;;
10851;SDS011;5479;52.046;6.314;2022-09-09T12:53:01;4.97;;;2.27;;
10851;SDS011;5479;52.046;6.314;2022-09-09T12:55:34;10.10;;;2.70;;
10851;SDS011;5479;52.046;6.314;2022-09-09T12:58:12;4.70;;;2.40;;
10851;SDS011;5479;52.046;6.314;2022-09-09T13:00:48;6.87;;;2.50;;
10851;SDS011;5479;52.046;6.314;2022-09-09T13:03:22;7.43;;;2.70;;
10851;SDS011;5479;52.046;6.314;2022-09-09T13:05:57;7.00;;;2.77;;
10851;SDS011;5479;52.046;6.314;2022-09-09T13:08:37;6.70;;;3.13;;
10851;SDS011;5479;52.046;6.314;2022-09-09T13:11:07;7.33;;;2.90;;
10851;SDS011;5479;52.046;6.314;2022-09-09T13:13:43;6.97;;;3.10;;
10851;SDS011;5479;52.046;6.314;2022-09-09T13:16:23;9.10;;;3.40;;
10851;SDS011;5479;52.046;6.314;2022-09-09T13:18:58;6.67;;;3.00;;
10851;SDS011;5479;52.046;6.314;2022-09-09T13:21:31;5.73;;;2.83;;
10851;SDS011;5479;52.046;6.314;2022-09-09T13:24:01;6.47;;;3.00;;
10851;SDS011;5479;52.046;6.314;2022-09-09T13:26:30;5.80;;;3.08;;
10851;SDS011;5479;52.046;6.314;2022-09-09T13:29:14;6.50;;;3.00;;
10851;SDS011;5479;52.046;6.314;2022-09-09T13:31:43;7.53;;;3.22;;
10851;SDS011;5479;52.046;6.314;2022-09-09T13:34:12;6.70;;;3.17;;
10851;SDS011;5479;52.046;6.314;2022-09-09T13:36:41;6.65;;;3.10;;
10851;SDS011;5479;52.046;6.314;2022-09-09T13:39:16;5.80;;;2.88;;
10851;SDS011;5479;52.046;6.314;2022-09-09T13:41:47;6.40;;;3.00;;
10851;SDS011;5479;52.046;6.314;2022-09-09T13:44:19;7.30;;;3.15;;
10851;SDS011;5479;52.046;6.314;2022-09-09T13:47:00;7.18;;;3.10;;
10851;SDS011;5479;52.046;6.314;2022-09-09T13:49:31;7.60;;;3.07;;
10851;SDS011;5479;52.046;6.314;2022-09-09T13:52:03;6.22;;;3.15;;
10851;SDS011;5479;52.046;6.314;2022-09-09T13:54:33;4.95;;;2.60;;
10851;SDS011;5479;52.046;6.314;2022-09-09T13:57:01;5.43;;;2.35;;
10851;SDS011;5479;52.046;6.314;2022-09-09T13:59:32;6.03;;;2.90;;
10851;SDS011;5479;52.046;6.314;2022-09-09T14:02:00;6.20;;;2.67;;
10851;SDS011;5479;52.046;6.314;2022-09-09T14:04:28;7.47;;;2.65;;
10851;SDS011;5479;52.046;6.314;2022-09-09T14:06:57;6.40;;;2.95;;
10851;SDS011;5479;52.046;6.314;2022-09-09T14:09:25;7.25;;;3.03;;
10851;SDS011;5479;52.046;6.314;2022-09-09T14:11:54;6.90;;;2.80;;
10851;SDS011;5479;52.046;6.314;2022-09-09T14:14:22;6.00;;;2.80;;
10851;SDS011;5479;52.046;6.314;2022-09-09T14:16:54;5.35;;;2.80;;
10851;SDS011;5479;52.046;6.314;2022-09-09T14:19:24;9.48;;;3.33;;
10851;SDS011;5479;52.046;6.314;2022-09-09T14:21:52;8.07;;;3.05;;
10851;SDS011;5479;52.046;6.314;2022-09-09T14:24:22;6.07;;;2.60;;
10851;SDS011;5479;52.046;6.314;2022-09-09T14:26:53;6.93;;;3.15;;
10851;SDS011;5479;52.046;6.314;2022-09-09T14:29:21;5.03;;;2.78;;
10851;SDS011;5479;52.046;6.314;2022-09-09T14:31:54;7.28;;;2.80;;
10851;SDS011;5479;52.046;6.314;2022-09-09T14:34:22;7.05;;;2.95;;
10851;SDS011;5479;52.046;6.314;2022-09-09T14:36:55;9.00;;;4.00;;
10851;SDS011;5479;52.046;6.314;2022-09-09T14:39:23;7.15;;;3.45;;
10851;SDS011;5479;52.046;6.314;2022-09-09T14:41:55;7.18;;;3.70;;
10851;SDS011;5479;52.046;6.314;2022-09-09T14:44:23;6.47;;;3.90;;
10851;SDS011;5479;52.046;6.314;2022-09-09T14:46:54;7.90;;;4.05;;
10851;SDS011;5479;52.046;6.314;2022-09-09T14:49:29;9.05;;;4.30;;
10851;SDS011;5479;52.046;6.314;2022-09-09T14:51:57;11.15;;;4.88;;
10851;SDS011;5479;52.046;6.314;2022-09-09T14:54:28;6.23;;;4.17;;
10851;SDS011;5479;52.046;6.314;2022-09-09T14:57:00;8.82;;;5.25;;
10851;SDS011;5479;52.046;6.314;2022-09-09T14:59:28;7.80;;;4.33;;
10851;SDS011;5479;52.046;6.314;2022-09-09T15:01:59;8.00;;;4.00;;
10851;SDS011;5479;52.046;6.314;2022-09-09T15:04:30;9.52;;;4.72;;
10851;SDS011;5479;52.046;6.314;2022-09-09T15:06:59;9.77;;;4.40;;
10851;SDS011;5479;52.046;6.314;2022-09-09T15:09:30;10.82;;;4.63;;
10851;SDS011;5479;52.046;6.314;2022-09-09T15:11:58;7.70;;;3.40;;
10851;SDS011;5479;52.046;6.314;2022-09-09T15:14:27;5.13;;;2.70;;
10851;SDS011;5479;52.046;6.314;2022-09-09T15:16:54;5.20;;;2.70;;
10851;SDS011;5479;52.046;6.314;2022-09-09T15:19:25;5.37;;;2.77;;
10851;SDS011;5479;52.046;6.314;2022-09-09T15:21:53;4.90;;;2.53;;
10851;SDS011;5479;52.046;6.314;2022-09-09T15:24:24;7.05;;;3.15;;
10851;SDS011;5479;52.046;6.314;2022-09-09T15:26:54;8.13;;;2.88;;
10851;SDS011;5479;52.046;6.314;2022-09-09T15:29:22;8.07;;;3.47;;
10851;SDS011;5479;52.046;6.314;2022-09-09T15:31:50;5.65;;;2.78;;
10851;SDS011;5479;52.046;6.314;2022-09-09T15:34:18;7.68;;;3.42;;
10851;SDS011;5479;52.046;6.314;2022-09-09T15:36:48;8.15;;;3.03;;
10851;SDS011;5479;52.046;6.314;2022-09-09T15:39:17;6.15;;;3.00;;